Time;durP1;ratioP1;P1;durP2;ratioP2;P2;SDS_P1;SDS_P2;PMS_P1;PMS_P2;Temp;Humidity;BMP_temperature;BMP_pressure;BME280_temperature;BME280_humidity;BME280_pressure;Samples;Min_cycle;Max_cycle;Signal;HPM_P1;HPM_P2
2020/12/17 00:00:25;;;;;;;43.70;36.00;;;8.80;99.90;;;;;;4945858;29;20035;-76
2020/12/17 00:02:51;;;;;;;45.35;36.70;;;8.80;99.90;;;;;;4945316;29;20042;-74
2020/12/17 00:05:18;;;;;;;42.05;37.22;;;8.80;99.90;;;;;;4926568;29;20031;-74
2020/12/17 00:07:44;;;;;;;43.85;39.10;;;8.80;99.90;;;;;;4923436;29;20039;-75
2020/12/17 00:10:12;;;;;;;48.17;42.58;;;8.80;99.90;;;;;;4944809;29;20035;-74
2020/12/17 00:12:41;;;;;;;44.38;38.42;;;8.90;99.90;;;;;;4945085;29;20554;-75
2020/12/17 00:15:10;;;;;;;49.92;42.40;;;8.90;99.90;;;;;;4952265;29;20035;-74
2020/12/17 00:17:42;;;;;;;45.78;41.03;;;8.90;99.90;;;;;;4944100;29;20027;-76
2020/12/17 00:20:09;;;;;;;48.20;42.72;;;8.80;99.90;;;;;;4914345;29;20123;-74
2020/12/17 00:22:36;;;;;;;48.70;42.22;;;8.80;99.90;;;;;;4948180;29;20023;-77
2020/12/17 00:25:04;;;;;;;49.65;44.28;;;8.90;99.90;;;;;;4937261;29;20371;-75
2020/12/17 00:27:30;;;;;;;52.35;43.08;;;8.90;99.90;;;;;;4943249;29;20027;-75
2020/12/17 00:29:56;;;;;;;45.88;40.83;;;8.90;99.90;;;;;;4943785;28;20024;-75
2020/12/17 00:32:22;;;;;;;48.30;42.78;;;8.90;99.90;;;;;;4950843;29;20119;-74
2020/12/17 00:34:48;;;;;;;50.72;43.13;;;8.90;99.90;;;;;;4945536;29;20035;-74
2020/12/17 00:37:14;;;;;;;46.65;39.58;;;8.90;99.90;;;;;;4930055;29;20079;-74
2020/12/17 00:39:40;;;;;;;49.63;41.28;;;8.90;99.90;;;;;;4949706;29;20032;-75
2020/12/17 00:42:09;;;;;;;48.78;43.53;;;8.90;99.90;;;;;;4922984;29;20098;-74
2020/12/17 00:44:35;;;;;;;49.13;40.47;;;9.00;99.90;;;;;;4943361;29;20027;-74
2020/12/17 00:47:01;;;;;;;44.08;39.30;;;9.00;99.90;;;;;;4948606;29;20505;-74
2020/12/17 00:49:27;;;;;;;46.22;40.95;;;9.10;99.90;;;;;;4928419;29;20027;-74
2020/12/17 00:52:02;;;;;;;46.90;42.03;;;9.10;99.90;;;;;;4952012;29;20027;-74
2020/12/17 00:54:28;;;;;;;48.55;40.20;;;9.10;99.90;;;;;;4922745;29;20060;-75
2020/12/17 00:56:54;;;;;;;47.72;42.42;;;9.10;99.90;;;;;;4919325;29;20032;-75
2020/12/17 00:59:21;;;;;;;45.78;40.92;;;9.10;99.90;;;;;;4948299;29;20043;-75
2020/12/17 01:01:48;;;;;;;46.17;41.42;;;9.00;99.90;;;;;;4941568;29;20024;-78
2020/12/17 01:04:14;;;;;;;45.03;40.25;;;9.00;99.90;;;;;;4946979;29;20023;-75
2020/12/17 01:06:40;;;;;;;49.40;43.15;;;8.80;99.90;;;;;;4945544;29;20095;-75
2020/12/17 01:09:06;;;;;;;51.25;44.78;;;8.80;99.90;;;;;;4949144;29;20063;-74
2020/12/17 01:11:32;;;;;;;50.13;44.28;;;8.70;99.90;;;;;;4949582;29;20066;-74
2020/12/17 01:13:59;;;;;;;51.97;46.33;;;8.60;99.90;;;;;;4947511;29;20031;-75
2020/12/17 01:16:25;;;;;;;50.30;44.60;;;8.60;99.90;;;;;;4948570;29;20031;-74
2020/12/17 01:18:51;;;;;;;48.70;43.40;;;8.50;99.90;;;;;;4949421;29;20032;-74
2020/12/17 01:21:17;;;;;;;48.85;43.63;;;8.50;99.90;;;;;;4938912;29;20047;-76
2020/12/17 01:23:44;;;;;;;51.33;45.85;;;8.40;99.90;;;;;;4947646;29;20031;-75
2020/12/17 01:26:10;;;;;;;55.00;48.72;;;8.50;99.90;;;;;;4953074;29;20386;-74
2020/12/17 01:28:37;;;;;;;50.97;45.63;;;8.40;99.90;;;;;;4951358;29;20019;-75
2020/12/17 01:31:11;;;;;;;50.03;44.60;;;8.40;99.90;;;;;;4948221;29;20394;-74
2020/12/17 01:33:38;;;;;;;56.75;47.65;;;8.30;99.90;;;;;;4945887;29;20099;-74
2020/12/17 01:36:09;;;;;;;48.28;43.15;;;8.30;99.90;;;;;;4954819;29;20042;-74
2020/12/17 01:38:37;;;;;;;56.38;47.65;;;8.20;99.90;;;;;;4951026;29;20027;-74
2020/12/17 01:41:05;;;;;;;52.80;46.90;;;8.10;99.90;;;;;;4941549;29;20030;-74
2020/12/17 01:43:45;;;;;;;56.22;48.70;;;8.10;99.90;;;;;;4945750;29;20034;-74
2020/12/17 01:46:12;;;;;;;55.92;47.42;;;7.90;99.90;;;;;;4937895;29;20030;-75
2020/12/17 01:48:40;;;;;;;54.20;46.75;;;7.90;99.90;;;;;;4947715;29;20035;-74
2020/12/17 01:51:06;;;;;;;53.25;47.53;;;7.80;99.90;;;;;;4949006;29;20102;-74
2020/12/17 01:53:40;;;;;;;51.58;45.97;;;7.70;99.90;;;;;;4946851;29;20031;-74
2020/12/17 01:56:23;;;;;;;50.65;45.30;;;7.60;99.90;;;;;;4931663;29;20031;-74
2020/12/17 01:58:57;;;;;;;51.72;46.10;;;7.50;99.90;;;;;;4946764;29;20034;-74
2020/12/17 02:01:26;;;;;;;54.50;48.65;;;7.50;99.90;;;;;;4946840;29;20030;-74
2020/12/17 02:03:54;;;;;;;52.13;45.85;;;7.50;99.90;;;;;;4941311;29;20055;-74
2020/12/17 02:06:20;;;;;;;54.03;46.08;;;7.50;99.90;;;;;;4951872;29;20031;-74
2020/12/17 02:08:50;;;;;;;56.28;48.65;;;7.50;99.90;;;;;;4948649;29;20024;-75
2020/12/17 02:11:16;;;;;;;54.85;46.72;;;7.40;99.90;;;;;;4953382;29;20027;-74
2020/12/17 02:13:42;;;;;;;49.25;43.80;;;7.50;99.90;;;;;;4949912;29;20031;-74
2020/12/17 02:16:09;;;;;;;44.53;39.67;;;7.40;99.90;;;;;;4932405;29;20416;-75
2020/12/17 02:18:35;;;;;;;49.97;40.08;;;7.60;99.90;;;;;;4942753;29;20028;-74
2020/12/17 02:21:01;;;;;;;42.45;36.35;;;7.60;99.90;;;;;;4940305;29;20389;-74
2020/12/17 02:23:28;;;;;;;40.35;36.00;;;7.70;99.90;;;;;;4938650;29;20031;-74
2020/12/17 02:25:54;;;;;;;39.50;33.00;;;7.70;99.90;;;;;;4952768;29;20066;-74
2020/12/17 02:28:21;;;;;;;36.72;32.85;;;7.70;99.90;;;;;;4950230;29;20082;-74
2020/12/17 02:30:48;;;;;;;36.15;31.98;;;7.70;99.90;;;;;;4936323;29;20031;-74
2020/12/17 02:33:14;;;;;;;38.72;31.80;;;7.80;99.90;;;;;;4947493;29;20059;-74
2020/12/17 02:35:40;;;;;;;36.25;30.17;;;7.80;99.90;;;;;;4954992;29;20119;-74
2020/12/17 02:38:06;;;;;;;37.17;27.52;;;7.90;99.90;;;;;;4948580;29;20036;-74
2020/12/17 02:40:33;;;;;;;33.38;29.80;;;7.90;99.90;;;;;;4934799;29;20051;-74
2020/12/17 02:42:59;;;;;;;32.13;28.77;;;7.90;99.90;;;;;;4945209;29;20075;-74
2020/12/17 02:45:25;;;;;;;37.47;32.03;;;8.00;99.90;;;;;;4936872;29;20118;-74
2020/12/17 02:47:51;;;;;;;33.33;29.45;;;8.00;99.90;;;;;;4946663;29;20091;-74
2020/12/17 02:50:18;;;;;;;31.77;27.52;;;8.00;99.90;;;;;;4942579;29;20489;-74
2020/12/17 02:52:44;;;;;;;31.15;26.40;;;8.10;99.90;;;;;;4925098;29;20035;-74
2020/12/17 02:55:10;;;;;;;25.67;23.08;;;8.10;99.90;;;;;;4949754;29;20537;-74
2020/12/17 02:57:36;;;;;;;29.85;26.23;;;8.20;99.90;;;;;;4933731;29;20382;-75
2020/12/17 03:00:06;;;;;;;28.95;24.27;;;8.30;99.90;;;;;;4948663;29;20074;-75
2020/12/17 03:02:32;;;;;;;30.98;26.73;;;8.20;99.90;;;;;;4943333;29;20027;-74
2020/12/17 03:04:57;;;;;;;29.63;25.67;;;8.30;99.90;;;;;;4954509;29;20098;-74
2020/12/17 03:07:23;;;;;;;28.08;24.48;;;8.30;99.90;;;;;;4947284;29;20031;-74
2020/12/17 03:09:49;;;;;;;28.83;25.35;;;8.30;99.90;;;;;;4946505;29;20072;-74
2020/12/17 03:12:15;;;;;;;26.33;23.63;;;8.30;99.90;;;;;;4940321;29;20037;-74
2020/12/17 03:14:41;;;;;;;27.48;24.58;;;8.40;99.90;;;;;;4941407;29;20035;-74
2020/12/17 03:17:06;;;;;;;27.35;24.50;;;8.40;99.90;;;;;;4939394;29;20024;-74
2020/12/17 03:19:32;;;;;;;33.05;27.55;;;8.40;99.90;;;;;;4931047;29;20027;-74
2020/12/17 03:21:58;;;;;;;30.45;26.73;;;8.30;99.90;;;;;;4952172;29;20038;-74
2020/12/17 03:24:24;;;;;;;32.65;28.05;;;8.30;99.90;;;;;;4947977;29;20035;-74
2020/12/17 03:26:50;;;;;;;29.65;26.52;;;8.30;99.90;;;;;;4937844;29;20079;-74
2020/12/17 03:29:15;;;;;;;32.63;28.50;;;8.30;99.90;;;;;;4940959;29;20038;-75
2020/12/17 03:31:41;;;;;;;28.63;25.60;;;8.30;99.90;;;;;;4945324;29;20514;-74
2020/12/17 03:34:07;;;;;;;29.30;26.25;;;8.30;99.90;;;;;;4945539;29;20039;-74
2020/12/17 03:36:33;;;;;;;28.60;25.55;;;8.30;99.90;;;;;;4954545;29;20027;-74
2020/12/17 03:38:59;;;;;;;28.45;25.45;;;8.40;99.90;;;;;;4947244;29;20031;-74
2020/12/17 03:41:25;;;;;;;29.27;25.30;;;8.50;99.90;;;;;;4939215;29;20087;-74
2020/12/17 03:43:51;;;;;;;30.10;26.90;;;8.50;99.90;;;;;;4941895;29;20036;-74
2020/12/17 03:46:16;;;;;;;32.80;26.77;;;8.60;99.90;;;;;;4943454;29;20034;-74
2020/12/17 03:48:42;;;;;;;28.95;25.90;;;8.50;99.90;;;;;;4947067;29;20024;-74
2020/12/17 03:51:08;;;;;;;28.15;25.20;;;8.60;99.90;;;;;;4953708;29;20148;-74
2020/12/17 03:53:34;;;;;;;30.27;25.70;;;8.70;99.90;;;;;;4950796;29;20086;-74
2020/12/17 03:56:00;;;;;;;30.42;26.52;;;8.70;99.90;;;;;;4962388;29;20022;-74
2020/12/17 03:58:26;;;;;;;32.15;27.90;;;8.60;99.90;;;;;;4961616;29;20028;-74
2020/12/17 04:00:51;;;;;;;32.53;29.17;;;8.60;99.90;;;;;;4947422;29;20039;-74
2020/12/17 04:03:17;;;;;;;30.50;27.30;;;8.60;99.90;;;;;;4967700;29;20058;-74
2020/12/17 04:05:43;;;;;;;30.92;27.73;;;8.60;99.90;;;;;;4962327;29;20039;-75
2020/12/17 04:08:09;;;;;;;30.55;26.05;;;8.60;99.90;;;;;;4966840;29;20035;-74
2020/12/17 04:10:35;;;;;;;29.88;25.55;;;8.50;99.90;;;;;;4930054;29;20031;-74
2020/12/17 04:13:01;;;;;;;28.50;25.00;;;8.50;99.90;;;;;;4951497;29;20043;-74
2020/12/17 04:15:26;;;;;;;28.83;24.80;;;8.50;99.90;;;;;;4940895;29;20026;-75
2020/12/17 04:17:52;;;;;;;36.15;26.98;;;8.40;99.90;;;;;;4943510;29;20102;-74
2020/12/17 04:20:18;;;;;;;31.13;27.80;;;8.50;99.90;;;;;;4943981;29;20043;-74
2020/12/17 04:22:44;;;;;;;29.90;26.48;;;8.50;99.90;;;;;;4937228;29;20032;-74
2020/12/17 04:25:10;;;;;;;27.38;24.15;;;8.50;99.90;;;;;;4947936;29;20078;-74
2020/12/17 04:27:36;;;;;;;28.63;25.52;;;8.50;99.90;;;;;;4930929;29;20031;-74
2020/12/17 04:30:03;;;;;;;26.70;23.88;;;8.60;99.90;;;;;;4948513;29;20031;-74
2020/12/17 04:32:29;;;;;;;27.58;24.67;;;8.60;99.90;;;;;;4951261;29;20023;-74
2020/12/17 04:34:55;;;;;;;26.55;23.77;;;8.60;99.90;;;;;;4947474;29;20050;-75
2020/12/17 04:37:21;;;;;;;26.50;23.40;;;8.60;99.90;;;;;;4954512;29;20043;-76
2020/12/17 04:39:47;;;;;;;26.42;23.73;;;8.70;99.90;;;;;;4946544;29;20111;-76
2020/12/17 04:42:14;;;;;;;25.67;23.13;;;8.70;99.90;;;;;;4947974;29;20027;-75
2020/12/17 04:44:43;;;;;;;27.58;24.85;;;8.70;99.90;;;;;;4944730;29;20032;-74
2020/12/17 04:47:12;;;;;;;27.90;24.17;;;8.70;99.90;;;;;;4947805;29;20110;-74
2020/12/17 04:49:41;;;;;;;23.90;21.35;;;8.70;99.90;;;;;;4950350;29;20051;-75
2020/12/17 04:52:07;;;;;;;23.95;21.52;;;8.80;99.90;;;;;;4950276;29;20051;-74
2020/12/17 04:54:34;;;;;;;24.02;20.75;;;8.80;99.90;;;;;;4950062;29;20039;-74
2020/12/17 04:57:11;;;;;;;24.67;20.58;;;8.70;99.90;;;;;;4944140;29;20046;-74
2020/12/17 04:59:42;;;;;;;24.10;21.10;;;8.80;99.90;;;;;;4942114;29;20042;-74
2020/12/17 05:02:09;;;;;;;25.30;21.65;;;8.80;99.90;;;;;;4950343;29;20201;-74
2020/12/17 05:04:38;;;;;;;21.08;18.85;;;8.90;99.90;;;;;;4949157;29;20038;-74
2020/12/17 05:07:08;;;;;;;21.40;18.92;;;8.80;99.90;;;;;;4944204;29;20039;-74
2020/12/17 05:09:35;;;;;;;25.42;22.55;;;8.80;99.90;;;;;;4949823;29;20559;-74
2020/12/17 05:12:01;;;;;;;23.70;21.27;;;8.80;99.90;;;;;;4924944;29;20394;-74
2020/12/17 05:14:28;;;;;;;26.15;23.55;;;8.80;99.90;;;;;;4930753;29;20315;-74
2020/12/17 05:16:57;;;;;;;25.98;23.35;;;8.80;99.90;;;;;;4947518;29;20035;-75
2020/12/17 05:19:24;;;;;;;27.23;22.83;;;8.80;99.90;;;;;;4941184;29;20028;-75
2020/12/17 05:21:52;;;;;;;23.90;21.33;;;8.80;99.90;;;;;;4943943;29;20106;-75
2020/12/17 05:24:21;;;;;;;24.98;21.63;;;8.90;99.90;;;;;;4933996;29;20093;-75
2020/12/17 05:26:47;;;;;;;28.60;22.42;;;8.90;99.90;;;;;;4950972;29;20019;-75
2020/12/17 05:29:15;;;;;;;24.98;22.55;;;8.80;99.90;;;;;;4947739;29;20019;-74
2020/12/17 05:31:41;;;;;;;25.20;22.33;;;8.90;99.90;;;;;;4946339;29;20487;-74
2020/12/17 05:34:07;;;;;;;26.90;24.10;;;8.80;99.90;;;;;;4928864;29;20068;-74
2020/12/17 05:36:33;;;;;;;26.55;23.70;;;8.90;99.90;;;;;;4931913;29;20019;-75
2020/12/17 05:39:11;;;;;;;25.25;22.70;;;9.00;99.90;;;;;;4946583;29;20024;-75
2020/12/17 05:41:37;;;;;;;28.05;22.70;;;9.00;99.90;;;;;;4944685;29;20062;-74
2020/12/17 05:44:24;;;;;;;24.70;22.17;;;9.00;99.90;;;;;;4940831;29;20035;-75
2020/12/17 05:46:50;;;;;;;24.73;22.13;;;9.00;99.90;;;;;;4945547;29;20055;-75
2020/12/17 05:49:24;;;;;;;27.25;24.38;;;9.00;99.90;;;;;;4930587;29;20023;-75
2020/12/17 05:52:08;;;;;;;25.35;22.75;;;9.00;99.90;;;;;;4947376;29;20109;-74
2020/12/17 05:54:34;;;;;;;26.65;23.42;;;9.00;99.90;;;;;;4943210;29;20028;-74
2020/12/17 05:57:16;;;;;;;25.52;22.83;;;9.00;99.90;;;;;;4952116;29;20027;-75
2020/12/17 05:59:57;;;;;;;28.85;25.80;;;9.00;99.90;;;;;;4943922;29;20032;-74
2020/12/17 06:02:31;;;;;;;24.63;22.13;;;9.00;99.90;;;;;;4938252;29;20035;-74
2020/12/17 06:05:07;;;;;;;27.88;24.92;;;9.00;99.90;;;;;;4937262;29;20023;-75
2020/12/17 06:07:45;;;;;;;25.17;22.67;;;9.00;99.90;;;;;;4938844;29;20020;-75
2020/12/17 06:10:25;;;;;;;33.38;24.55;;;9.00;99.90;;;;;;4938441;29;20042;-75
2020/12/17 06:12:53;;;;;;;28.27;25.35;;;9.00;99.90;;;;;;4950546;29;20619;-74
2020/12/17 06:15:24;;;;;;;26.58;23.75;;;9.00;99.90;;;;;;4939086;29;20043;-74
2020/12/17 06:17:54;;;;;;;27.38;24.45;;;8.90;99.90;;;;;;4943661;29;20023;-74
2020/12/17 06:20:21;;;;;;;30.63;24.75;;;8.90;99.90;;;;;;4926741;29;20027;-74
2020/12/17 06:22:54;;;;;;;27.42;22.83;;;8.80;99.90;;;;;;4933565;29;20075;-74
2020/12/17 06:25:21;;;;;;;29.17;26.15;;;8.90;99.90;;;;;;4926458;29;20398;-68
2020/12/17 06:27:49;;;;;;;29.90;25.88;;;9.00;99.90;;;;;;4942114;29;20100;-68
2020/12/17 06:30:21;;;;;;;30.73;26.00;;;8.90;99.90;;;;;;4928167;29;20474;-74
2020/12/17 06:32:48;;;;;;;29.13;26.25;;;8.80;99.90;;;;;;4944166;29;20063;-73
2020/12/17 06:35:43;;;;;;;30.98;25.27;;;8.80;99.90;;;;;;4941922;29;20043;-74
2020/12/17 06:38:17;;;;;;;32.13;28.75;;;8.90;99.90;;;;;;4941110;29;20111;-74
2020/12/17 06:40:43;;;;;;;27.85;25.08;;;8.90;99.90;;;;;;4943471;29;20111;-73
2020/12/17 06:43:38;;;;;;;31.58;27.45;;;9.00;99.90;;;;;;4938074;29;20138;-74
2020/12/17 06:46:05;;;;;;;32.67;26.00;;;9.10;99.90;;;;;;4950130;29;20023;-73
2020/12/17 06:48:37;;;;;;;32.58;28.27;;;9.10;99.90;;;;;;4955039;29;20023;-73
2020/12/17 06:51:28;;;;;;;30.85;25.55;;;9.10;99.90;;;;;;4944877;29;20367;-73
2020/12/17 06:53:55;;;;;;;31.58;28.33;;;9.00;99.90;;;;;;4948219;29;20027;-76
2020/12/17 06:56:22;;;;;;;30.35;27.23;;;9.10;99.90;;;;;;4950056;29;20031;-74
2020/12/17 06:58:48;;;;;;;28.25;25.33;;;9.10;99.90;;;;;;4948345;29;20031;-73
2020/12/17 07:01:25;;;;;;;43.33;28.95;;;9.20;99.90;;;;;;4943526;29;20082;-73
2020/12/17 07:03:51;;;;;;;34.92;26.30;;;9.20;99.90;;;;;;4947205;29;20024;-74
2020/12/17 07:06:22;;;;;;;35.55;25.70;;;9.20;99.90;;;;;;4946463;29;20043;-74
2020/12/17 07:08:51;;;;;;;30.98;25.67;;;9.20;99.90;;;;;;4942106;29;20024;-75
2020/12/17 07:11:45;;;;;;;32.53;25.55;;;9.40;99.90;;;;;;4945883;29;20505;-74
2020/12/17 07:14:18;;;;;;;34.90;27.70;;;9.40;99.90;;;;;;4933429;29;20047;-74
2020/12/17 07:16:55;;;;;;;29.52;26.33;;;9.40;99.90;;;;;;4950156;29;20140;-74
2020/12/17 07:20:00;;;;;;;30.17;25.52;;;9.50;99.90;;;;;;4947040;29;20090;-74
2020/12/17 07:22:26;;;;;;;30.85;27.55;;;9.50;99.90;;;;;;4951674;29;20482;-75
2020/12/17 07:25:07;;;;;;;39.53;27.98;;;9.60;99.90;;;;;;4939569;29;20035;-77
2020/12/17 07:28:02;;;;;;;30.20;27.02;;;9.60;99.90;;;;;;4918928;29;20067;-73
2020/12/17 07:30:29;;;;;;;36.88;28.42;;;9.70;99.90;;;;;;4926551;29;20027;-74
2020/12/17 07:32:55;;;;;;;37.17;27.90;;;9.60;99.90;;;;;;4941167;29;20028;-74
2020/12/17 07:35:24;;;;;;;32.83;26.08;;;9.70;99.90;;;;;;4929494;29;20997;-75
2020/12/17 07:37:53;;;;;;;37.65;29.25;;;9.70;99.90;;;;;;4945947;29;20070;-73
2020/12/17 07:40:34;;;;;;;34.08;29.77;;;9.70;99.90;;;;;;4946104;28;20057;-77
2020/12/17 07:43:14;;;;;;;34.72;29.25;;;9.70;99.90;;;;;;4950007;29;20035;-74
2020/12/17 07:45:57;;;;;;;36.90;28.85;;;9.70;99.90;;;;;;4906825;29;20028;-73
2020/12/17 07:48:44;;;;;;;38.50;30.80;;;9.80;99.90;;;;;;4944682;29;20031;-74
2020/12/17 07:51:12;;;;;;;41.70;29.90;;;9.80;99.90;;;;;;4942260;29;20027;-73
2020/12/17 07:53:43;;;;;;;37.50;33.35;;;9.90;99.90;;;;;;4946555;29;20035;-74
2020/12/17 07:56:10;;;;;;;39.00;31.23;;;10.00;99.90;;;;;;4942539;29;20035;-74
2020/12/17 07:58:36;;;;;;;38.22;31.13;;;10.10;99.90;;;;;;4942426;29;20899;-75
2020/12/17 08:01:03;;;;;;;40.70;34.80;;;10.20;99.90;;;;;;4915331;29;20023;-75
2020/12/17 08:03:31;;;;;;;40.17;33.22;;;10.20;99.90;;;;;;4930691;29;20027;-74
2020/12/17 08:06:08;;;;;;;52.33;38.33;;;10.10;99.90;;;;;;4938590;29;20027;-73
2020/12/17 08:08:34;;;;;;;43.78;35.63;;;10.10;99.90;;;;;;4942449;29;20031;-74
2020/12/17 08:11:04;;;;;;;46.15;35.88;;;10.20;99.90;;;;;;4952477;29;20031;-74
2020/12/17 08:13:30;;;;;;;46.92;40.47;;;10.20;99.90;;;;;;4933679;29;20106;-74
2020/12/17 08:15:57;;;;;;;46.83;38.65;;;10.30;99.90;;;;;;4946401;29;20055;-74
2020/12/17 08:18:43;;;;;;;51.15;37.30;;;10.30;99.90;;;;;;4931160;29;20123;-74
2020/12/17 08:21:11;;;;;;;44.33;39.13;;;10.30;99.90;;;;;;4940273;29;20054;-74
2020/12/17 08:23:39;;;;;;;56.92;39.63;;;10.30;99.90;;;;;;4936493;29;20067;-74
2020/12/17 08:26:07;;;;;;;44.20;39.22;;;10.40;99.90;;;;;;4931738;29;20483;-75
2020/12/17 08:28:36;;;;;;;49.05;40.28;;;10.40;99.90;;;;;;4941852;29;20032;-75
2020/12/17 08:31:09;;;;;;;52.38;38.90;;;10.60;99.90;;;;;;4945563;29;20039;-73
2020/12/17 08:33:43;;;;;;;45.40;39.63;;;10.80;99.90;;;;;;4931359;29;20031;-74
2020/12/17 08:36:11;;;;;;;49.97;41.03;;;10.80;99.90;;;;;;4947517;29;20039;-75
2020/12/17 08:38:37;;;;;;;52.00;38.67;;;10.90;99.90;;;;;;4955677;29;20042;-74
2020/12/17 08:41:09;;;;;;;47.13;40.97;;;11.00;99.90;;;;;;4941743;29;20039;-75
2020/12/17 08:43:48;;;;;;;52.33;40.83;;;11.00;99.90;;;;;;4938905;29;20471;-74
2020/12/17 08:46:17;;;;;;;49.75;39.53;;;11.20;99.90;;;;;;4939037;29;20046;-74
2020/12/17 08:48:45;;;;;;;55.22;41.13;;;11.30;99.90;;;;;;4938864;29;20099;-74
2020/12/17 08:51:15;;;;;;;58.88;42.42;;;11.30;99.90;;;;;;4920610;29;20031;-74
2020/12/17 08:53:42;;;;;;;52.28;41.85;;;11.30;99.90;;;;;;4944714;29;20023;-73
2020/12/17 08:56:18;;;;;;;57.13;45.97;;;11.30;99.90;;;;;;4955538;29;20023;-74
2020/12/17 08:59:03;;;;;;;56.10;44.25;;;11.20;99.90;;;;;;4927266;29;20408;-73
2020/12/17 09:01:31;;;;;;;56.45;43.25;;;11.10;99.90;;;;;;4927201;29;20659;-74
2020/12/17 09:03:57;;;;;;;55.28;46.08;;;11.20;99.90;;;;;;4938355;29;20027;-74
2020/12/17 09:06:29;;;;;;;54.45;47.40;;;11.20;99.90;;;;;;4938701;29;20570;-74
2020/12/17 09:09:16;;;;;;;67.00;51.42;;;11.20;99.90;;;;;;4937687;29;20035;-74
2020/12/17 09:11:46;;;;;;;61.08;50.25;;;11.20;99.90;;;;;;4938218;29;20063;-73
2020/12/17 09:14:19;;;;;;;62.85;51.78;;;11.30;99.90;;;;;;4939803;29;20118;-73
2020/12/17 09:16:48;;;;;;;62.13;49.40;;;11.20;99.90;;;;;;4920833;29;20036;-73
2020/12/17 09:19:14;;;;;;;62.45;55.92;;;11.20;99.90;;;;;;4938043;29;20483;-75
2020/12/17 09:21:59;;;;;;;61.47;50.53;;;11.30;99.90;;;;;;4938055;29;20054;-73
2020/12/17 09:24:26;;;;;;;59.35;52.85;;;11.40;99.90;;;;;;4902510;29;20028;-73
2020/12/17 09:26:53;;;;;;;65.63;52.15;;;11.40;99.90;;;;;;4934412;29;20027;-74
2020/12/17 09:29:19;;;;;;;63.92;54.10;;;11.60;99.90;;;;;;4938504;29;20058;-73
2020/12/17 09:31:45;;;;;;;67.63;55.90;;;11.70;99.90;;;;;;4937815;29;20020;-73
2020/12/17 09:34:13;;;;;;;71.07;55.65;;;11.60;99.90;;;;;;4921173;29;20093;-73
2020/12/17 09:36:42;;;;;;;70.47;54.70;;;11.50;99.90;;;;;;4937989;29;20027;-73
2020/12/17 09:39:13;;;;;;;72.40;58.50;;;11.40;99.90;;;;;;4937538;29;20034;-73
2020/12/17 09:41:50;;;;;;;57.53;45.92;;;11.40;99.90;;;;;;4938149;29;20028;-74
2020/12/17 09:44:29;;;;;;;67.55;58.75;;;11.50;99.90;;;;;;4920798;29;20027;-73
2020/12/17 09:46:55;;;;;;;71.32;60.10;;;11.50;99.90;;;;;;4921009;29;20051;-74
2020/12/17 09:49:33;;;;;;;89.93;64.65;;;11.50;99.90;;;;;;4937458;29;20428;-75
2020/12/17 09:52:03;;;;;;;72.82;60.58;;;11.40;99.90;;;;;;4938073;29;20470;-73
2020/12/17 09:54:29;;;;;;;75.95;61.17;;;11.60;99.90;;;;;;4937338;29;20399;-73
2020/12/17 09:57:33;;;;;;;76.32;60.13;;;11.70;99.90;;;;;;4937421;29;20051;-74
2020/12/17 09:59:59;;;;;;;79.47;59.72;;;11.80;99.90;;;;;;4923294;29;20036;-74
2020/12/17 10:02:25;;;;;;;72.18;61.20;;;11.90;99.90;;;;;;4936343;29;20042;-74
2020/12/17 10:04:51;;;;;;;71.05;59.63;;;12.00;99.90;;;;;;4937751;29;20110;-73
2020/12/17 10:07:17;;;;;;;71.03;62.63;;;12.20;99.90;;;;;;4936463;29;20024;-74
2020/12/17 10:09:42;;;;;;;68.47;61.10;;;12.30;99.90;;;;;;4935859;29;20510;-74
2020/12/17 10:12:08;;;;;;;70.50;62.92;;;12.30;99.90;;;;;;4936738;29;20034;-75
2020/12/17 10:14:34;;;;;;;71.07;60.80;;;12.30;99.90;;;;;;4937190;29;20438;-74
2020/12/17 10:17:01;;;;;;;74.57;58.45;;;12.30;99.90;;;;;;4937255;29;20387;-73
2020/12/17 10:19:29;;;;;;;67.55;57.45;;;12.50;99.90;;;;;;4936733;29;20035;-74
2020/12/17 10:21:56;;;;;;;72.78;60.50;;;12.50;99.90;;;;;;4937023;29;20028;-73
2020/12/17 10:24:21;;;;;;;72.07;59.63;;;12.40;99.90;;;;;;4930702;29;20538;-74
2020/12/17 10:26:47;;;;;;;72.80;62.08;;;12.40;99.90;;;;;;4919635;29;20016;-74
2020/12/17 10:29:13;;;;;;;74.82;62.05;;;12.50;99.90;;;;;;4919753;29;20043;-75
2020/12/17 10:31:39;;;;;;;76.97;64.80;;;12.60;99.90;;;;;;4936474;29;20039;-73
2020/12/17 10:34:06;;;;;;;76.70;68.40;;;12.60;99.90;;;;;;4937206;29;20276;-73
2020/12/17 10:36:37;;;;;;;76.80;62.28;;;12.50;99.90;;;;;;4937263;29;20023;-74
2020/12/17 10:39:03;;;;;;;79.20;64.05;;;12.50;99.90;;;;;;4936766;29;20023;-74
2020/12/17 10:41:29;;;;;;;75.95;62.75;;;12.50;99.90;;;;;;4936600;29;20023;-73
2020/12/17 10:43:55;;;;;;;74.45;63.03;;;12.70;99.90;;;;;;4918750;29;20047;-73
2020/12/17 10:46:21;;;;;;;86.57;67.63;;;12.60;99.90;;;;;;4936297;29;20062;-73
2020/12/17 10:48:47;;;;;;;75.93;64.43;;;12.50;99.90;;;;;;4919897;29;20031;-73
2020/12/17 10:51:14;;;;;;;75.93;67.20;;;12.50;99.90;;;;;;4937106;29;20031;-73
2020/12/17 10:53:41;;;;;;;77.85;69.30;;;12.50;99.90;;;;;;4934852;29;20103;-73
2020/12/17 10:56:10;;;;;;;75.30;66.88;;;12.40;99.90;;;;;;4934889;29;20219;-74
2020/12/17 10:58:40;;;;;;;77.53;66.70;;;12.30;99.90;;;;;;4917418;29;20122;-73
2020/12/17 11:01:06;;;;;;;75.90;67.35;;;12.30;99.90;;;;;;4934286;29;20026;-73
2020/12/17 11:03:32;;;;;;;75.88;67.97;;;12.20;99.90;;;;;;4916929;29;20016;-73
2020/12/17 11:05:58;;;;;;;84.45;68.88;;;12.20;99.90;;;;;;4934608;29;20159;-73
2020/12/17 11:08:28;;;;;;;86.75;66.88;;;12.30;99.90;;;;;;4934143;29;20098;-74
2020/12/17 11:10:54;;;;;;;78.10;69.50;;;12.50;99.90;;;;;;4934625;29;20110;-74
2020/12/17 11:13:21;;;;;;;79.55;69.13;;;12.50;99.90;;;;;;4917243;29;20042;-73
2020/12/17 11:15:50;;;;;;;78.18;70.13;;;12.50;99.90;;;;;;4934455;29;20027;-73
2020/12/17 11:18:17;;;;;;;84.10;73.35;;;12.40;99.90;;;;;;4917942;29;20397;-72
2020/12/17 11:20:43;;;;;;;76.68;68.22;;;12.40;99.90;;;;;;4934060;29;20031;-73
2020/12/17 11:23:10;;;;;;;82.60;73.80;;;12.50;99.90;;;;;;4934174;29;20020;-73
2020/12/17 11:25:39;;;;;;;76.22;68.43;;;12.40;99.90;;;;;;4933724;29;20035;-74
2020/12/17 11:28:06;;;;;;;75.20;67.20;;;12.60;99.90;;;;;;4933981;29;20180;-74
2020/12/17 11:30:34;;;;;;;82.43;73.50;;;12.60;99.90;;;;;;4933537;29;20043;-74
2020/12/17 11:33:00;;;;;;;78.30;69.88;;;12.60;99.90;;;;;;4933636;29;20027;-73
2020/12/17 11:35:26;;;;;;;75.53;66.47;;;12.60;99.90;;;;;;4933611;29;20058;-74
2020/12/17 11:37:52;;;;;;;81.03;72.57;;;12.70;99.90;;;;;;4936218;29;20075;-74
2020/12/17 11:40:19;;;;;;;74.80;66.88;;;12.70;99.90;;;;;;4935390;29;20079;-74
2020/12/17 11:42:45;;;;;;;82.95;74.40;;;12.80;99.90;;;;;;4918448;29;20051;-74
2020/12/17 11:45:12;;;;;;;82.75;73.82;;;12.80;99.90;;;;;;4919621;29;20031;-75
2020/12/17 11:47:38;;;;;;;77.05;69.00;;;12.80;99.90;;;;;;4919842;29;20062;-74
2020/12/17 11:50:06;;;;;;;75.05;67.10;;;12.70;99.90;;;;;;4936170;29;20032;-74
2020/12/17 11:52:36;;;;;;;78.50;70.10;;;12.80;99.90;;;;;;4935288;29;20039;-75
2020/12/17 11:55:04;;;;;;;81.15;72.28;;;12.80;99.90;;;;;;4919349;29;20051;-74
2020/12/17 11:57:29;;;;;;;83.40;74.40;;;12.80;99.90;;;;;;4935698;29;20042;-75
2020/12/17 11:59:55;;;;;;;83.55;74.75;;;12.80;99.90;;;;;;4936471;29;20375;-74
2020/12/17 12:02:21;;;;;;;91.20;81.32;;;12.90;99.90;;;;;;4935650;29;20141;-73
2020/12/17 12:04:47;;;;;;;85.25;76.32;;;12.70;99.90;;;;;;4935713;29;20023;-73
2020/12/17 12:07:13;;;;;;;86.60;77.22;;;12.70;99.90;;;;;;4935848;29;20064;-74
2020/12/17 12:09:39;;;;;;;88.22;79.03;;;12.90;99.90;;;;;;4935562;29;20036;-74
2020/12/17 12:12:05;;;;;;;84.25;74.10;;;12.80;99.90;;;;;;4935837;29;20031;-74
2020/12/17 12:14:31;;;;;;;83.78;74.80;;;12.90;99.90;;;;;;4935858;29;20047;-74
2020/12/17 12:16:57;;;;;;;83.30;74.53;;;12.90;99.90;;;;;;4935976;29;20399;-75
2020/12/17 12:19:23;;;;;;;79.25;70.63;;;13.00;99.90;;;;;;4918430;29;20032;-74
2020/12/17 12:21:53;;;;;;;81.95;73.03;;;13.00;99.90;;;;;;4935541;29;20107;-75
2020/12/17 12:24:19;;;;;;;88.47;77.18;;;13.00;99.90;;;;;;4933294;29;20107;-74
2020/12/17 12:26:46;;;;;;;82.35;73.47;;;13.10;99.90;;;;;;4922917;29;20031;-74
2020/12/17 12:29:12;;;;;;;87.43;75.10;;;13.00;99.90;;;;;;4958436;29;20079;-74
2020/12/17 12:31:38;;;;;;;88.60;71.68;;;12.90;99.90;;;;;;4958061;29;20041;-74
2020/12/17 12:34:04;;;;;;;91.88;75.45;;;12.70;99.90;;;;;;4958889;29;20027;-75
2020/12/17 12:36:30;;;;;;;88.53;78.13;;;12.70;99.90;;;;;;4960070;29;20030;-76
2020/12/17 12:38:56;;;;;;;93.78;73.93;;;12.60;99.90;;;;;;4941719;29;20039;-74
2020/12/17 12:41:22;;;;;;;81.10;68.43;;;12.60;99.90;;;;;;4943882;29;20112;-75